Time;durP1;ratioP1;P1;durP2;ratioP2;P2;SDS_P1;SDS_P2;PMS_P1;PMS_P2;Temp;Humidity;BMP_temperature;BMP_pressure;BME280_temperature;BME280_humidity;BME280_pressure;Samples;Min_cycle;Max_cycle;Signal;HPM_P1;HPM_P2
2021/12/23 00:00:15;;;;;;;41.08;20.08;;;6.70;99.90;;;;;;5083051;28;20031;-73
2021/12/23 00:02:41;;;;;;;37.47;19.15;;;6.70;99.90;;;;;;5084171;28;20024;-73
2021/12/23 00:05:08;;;;;;;37.78;19.52;;;6.70;99.90;;;;;;5084246;28;20203;-73
2021/12/23 00:07:34;;;;;;;40.72;19.65;;;6.70;99.90;;;;;;5066402;28;20319;-73
2021/12/23 00:10:05;;;;;;;39.70;19.52;;;6.70;99.90;;;;;;5083019;28;20046;-71
2021/12/23 00:12:32;;;;;;;39.03;20.30;;;6.70;99.90;;;;;;5084263;28;20021;-71
2021/12/23 00:14:57;;;;;;;38.63;19.45;;;6.70;99.90;;;;;;5084403;28;20027;-72
2021/12/23 00:23:24;;;;;;;37.75;19.75;;;6.70;99.90;;;;;;5083313;28;20188;-72
2021/12/23 00:25:40;;;;;;;38.08;18.65;;;6.70;99.90;;;;;;5069283;28;20051;-73
2021/12/23 00:28:06;;;;;;;42.45;20.05;;;6.70;99.90;;;;;;5083808;28;20017;-72
2021/12/23 00:30:32;;;;;;;39.85;20.05;;;6.80;99.90;;;;;;5083889;28;20093;-73
2021/12/23 00:32:58;;;;;;;37.33;18.90;;;6.80;99.90;;;;;;5083711;28;20212;-72
2021/12/23 00:35:24;;;;;;;39.60;20.40;;;6.90;99.90;;;;;;5083811;28;20051;-72
2021/12/23 00:37:56;;;;;;;36.05;18.67;;;6.90;99.90;;;;;;5084119;28;20020;-73
2021/12/23 00:40:22;;;;;;;35.33;18.95;;;7.10;99.90;;;;;;5083971;28;20024;-73
2021/12/23 00:42:48;;;;;;;34.80;18.92;;;7.10;99.90;;;;;;5083644;28;20338;-73
2021/12/23 00:45:13;;;;;;;38.90;19.45;;;7.20;99.90;;;;;;5083878;28;20017;-73
2021/12/23 00:47:39;;;;;;;38.78;19.92;;;7.10;99.90;;;;;;5082244;28;20017;-73
2021/12/23 00:50:05;;;;;;;41.60;19.70;;;7.10;99.90;;;;;;5083674;28;20028;-73
2021/12/23 00:52:35;;;;;;;36.30;19.17;;;7.10;99.90;;;;;;5082473;28;20431;-73
2021/12/23 00:55:01;;;;;;;38.83;17.63;;;7.10;99.90;;;;;;5082865;28;20031;-73
2021/12/23 00:57:29;;;;;;;36.03;19.92;;;7.20;99.90;;;;;;5082824;28;20044;-72
2021/12/23 00:59:56;;;;;;;32.85;18.95;;;7.20;99.90;;;;;;5083311;28;20070;-73
2021/12/23 01:02:27;;;;;;;40.03;19.35;;;7.10;99.90;;;;;;5083612;28;20027;-72
2021/12/23 01:04:53;;;;;;;36.45;18.10;;;7.10;99.90;;;;;;5066641;28;20024;-73
2021/12/23 01:07:19;;;;;;;41.28;20.48;;;7.20;99.90;;;;;;5083806;28;20060;-72
2021/12/23 01:09:45;;;;;;;36.83;19.13;;;7.10;99.90;;;;;;5083649;28;20361;-73
2021/12/23 01:12:13;;;;;;;34.80;18.92;;;7.00;99.90;;;;;;5083627;28;20027;-72
2021/12/23 01:14:43;;;;;;;39.15;19.17;;;6.90;99.90;;;;;;5083358;28;20039;-72
2021/12/23 01:17:23;;;;;;;41.80;19.65;;;6.90;99.90;;;;;;5083548;28;20039;-72
2021/12/23 01:19:52;;;;;;;35.70;18.33;;;6.90;99.90;;;;;;5083040;28;20058;-73
2021/12/23 01:22:19;;;;;;;42.35;20.80;;;7.00;99.90;;;;;;5083467;28;20342;-73
2021/12/23 01:24:45;;;;;;;35.78;19.00;;;7.00;99.90;;;;;;5083326;28;20056;-73
2021/12/23 01:27:10;;;;;;;36.08;19.33;;;7.00;99.90;;;;;;5065652;28;20215;-73
2021/12/23 01:29:37;;;;;;;41.13;20.33;;;7.00;99.90;;;;;;5083873;28;20031;-73
2021/12/23 01:32:04;;;;;;;36.50;20.15;;;7.00;99.90;;;;;;5087120;28;20337;-73
2021/12/23 01:34:33;;;;;;;39.33;19.65;;;7.00;99.90;;;;;;5086919;28;20017;-72
2021/12/23 01:37:00;;;;;;;38.13;19.20;;;7.00;99.90;;;;;;5086959;28;20204;-73
2021/12/23 01:39:26;;;;;;;36.38;19.52;;;7.00;99.90;;;;;;5087014;28;20047;-73
2021/12/23 01:41:52;;;;;;;39.83;19.80;;;7.00;99.90;;;;;;5087064;28;20043;-73
2021/12/23 01:44:17;;;;;;;39.03;19.92;;;7.00;99.90;;;;;;5086690;28;20082;-74
2021/12/23 01:46:43;;;;;;;40.65;20.65;;;6.90;99.90;;;;;;5086607;28;20016;-73
2021/12/23 01:49:09;;;;;;;40.58;20.42;;;7.00;99.90;;;;;;5084211;28;20043;-73
2021/12/23 01:51:35;;;;;;;36.42;19.70;;;7.00;99.90;;;;;;5068835;28;20130;-74
2021/12/23 01:54:02;;;;;;;34.85;20.60;;;7.00;99.90;;;;;;5085570;28;20083;-73
2021/12/23 01:56:28;;;;;;;42.83;21.17;;;7.10;99.90;;;;;;5086819;28;20087;-73
2021/12/23 01:58:53;;;;;;;34.92;19.05;;;7.10;99.90;;;;;;5086004;28;20406;-73
2021/12/23 02:01:19;;;;;;;44.90;20.27;;;7.10;99.90;;;;;;5086644;28;20020;-73
2021/12/23 02:03:45;;;;;;;43.47;22.00;;;7.10;99.90;;;;;;5085383;28;20059;-74
2021/12/23 02:06:11;;;;;;;39.90;21.67;;;7.10;99.90;;;;;;5085383;28;20028;-73
2021/12/23 02:08:38;;;;;;;44.75;22.15;;;7.10;99.90;;;;;;5086525;28;20315;-73
2021/12/23 02:11:07;;;;;;;49.13;24.02;;;7.10;99.90;;;;;;5086061;28;20378;-74
2021/12/23 02:13:33;;;;;;;51.88;25.30;;;7.10;99.90;;;;;;5086462;28;20016;-73
2021/12/23 02:15:59;;;;;;;52.90;26.30;;;7.20;99.90;;;;;;5068590;28;20021;-72
2021/12/23 02:18:25;;;;;;;59.70;25.85;;;7.20;99.90;;;;;;5085126;28;20304;-74
2021/12/23 02:20:51;;;;;;;57.95;26.38;;;7.30;99.90;;;;;;5086138;28;20030;-73
2021/12/23 02:23:17;;;;;;;57.35;26.92;;;7.30;99.90;;;;;;5086026;28;20027;-74
2021/12/23 02:25:43;;;;;;;56.35;26.63;;;7.30;99.90;;;;;;5084990;28;20024;-73
2021/12/23 02:28:08;;;;;;;58.40;26.98;;;7.40;99.90;;;;;;5085838;28;20353;-74
2021/12/23 02:30:39;;;;;;;55.25;26.35;;;7.40;99.90;;;;;;5084577;28;20016;-73
2021/12/23 02:33:07;;;;;;;61.05;27.08;;;7.40;99.90;;;;;;5086011;28;20044;-73
2021/12/23 02:35:34;;;;;;;61.45;26.85;;;7.50;99.90;;;;;;5085823;28;20312;-73
2021/12/23 02:38:00;;;;;;;60.53;26.65;;;7.50;99.90;;;;;;5086089;28;20272;-73
2021/12/23 02:40:36;;;;;;;58.40;27.08;;;7.60;99.90;;;;;;5084313;28;20180;-73
2021/12/23 02:43:13;;;;;;;58.90;27.77;;;7.60;99.90;;;;;;5085921;28;20024;-73
2021/12/23 02:45:40;;;;;;;69.72;29.83;;;7.60;99.90;;;;;;5068334;28;20036;-73
2021/12/23 02:48:12;;;;;;;66.28;28.02;;;7.70;99.90;;;;;;5084091;28;20028;-74
2021/12/23 02:50:39;;;;;;;61.72;28.80;;;7.70;99.90;;;;;;5082671;28;20087;-73
2021/12/23 02:53:04;;;;;;;65.07;28.15;;;7.70;99.90;;;;;;5091942;28;20358;-73
2021/12/23 02:55:30;;;;;;;65.07;28.13;;;7.60;99.90;;;;;;5099023;28;20021;-73
2021/12/23 02:57:56;;;;;;;70.15;27.55;;;7.70;99.90;;;;;;5096878;28;20024;-74
2021/12/23 03:00:21;;;;;;;62.33;28.98;;;7.80;99.90;;;;;;5094472;28;20061;-73
2021/12/23 03:02:47;;;;;;;66.88;27.13;;;7.80;99.90;;;;;;5092240;28;20052;-74
2021/12/23 03:05:13;;;;;;;57.67;28.00;;;7.80;99.90;;;;;;5086861;28;20074;-73
2021/12/23 03:07:38;;;;;;;65.70;29.70;;;7.80;99.90;;;;;;5085082;28;20239;-74
2021/12/23 03:10:07;;;;;;;65.70;30.55;;;7.70;99.90;;;;;;5085216;28;20024;-73
2021/12/23 03:12:33;;;;;;;68.65;32.30;;;7.60;99.90;;;;;;5084097;28;20334;-72
2021/12/23 03:14:59;;;;;;;71.75;31.65;;;7.60;99.90;;;;;;5084537;28;20027;-73
2021/12/23 03:17:25;;;;;;;71.70;32.92;;;7.60;99.90;;;;;;5085300;28;20107;-73
2021/12/23 03:19:51;;;;;;;77.10;32.08;;;7.60;99.90;;;;;;5083822;28;20020;-72
2021/12/23 03:22:16;;;;;;;73.68;31.77;;;7.60;99.90;;;;;;5084599;28;20012;-74
2021/12/23 03:24:42;;;;;;;64.03;31.45;;;7.70;99.90;;;;;;5085067;28;20204;-73
2021/12/23 03:27:08;;;;;;;73.80;30.67;;;7.70;99.90;;;;;;5084896;28;20024;-73
2021/12/23 03:29:34;;;;;;;70.35;30.75;;;7.80;99.90;;;;;;5084498;28;20303;-74
2021/12/23 03:32:00;;;;;;;73.30;32.75;;;7.80;99.90;;;;;;5084743;28;20020;-73
2021/12/23 03:34:26;;;;;;;75.35;34.17;;;7.80;99.90;;;;;;5084803;28;20028;-73
2021/12/23 03:36:52;;;;;;;81.18;34.33;;;7.80;99.90;;;;;;5084561;28;20023;-73
2021/12/23 03:39:19;;;;;;;83.65;35.50;;;7.80;99.90;;;;;;5084811;28;20037;-73
2021/12/23 03:41:46;;;;;;;85.03;36.35;;;7.80;99.90;;;;;;5084714;28;20212;-73
2021/12/23 03:44:12;;;;;;;87.90;34.85;;;7.80;99.90;;;;;;5084433;28;20032;-73
2021/12/23 03:46:38;;;;;;;95.57;39.33;;;7.90;99.90;;;;;;5083277;28;20051;-74
2021/12/23 03:49:06;;;;;;;94.07;38.47;;;7.90;99.90;;;;;;5083301;28;20020;-72
2021/12/23 03:51:32;;;;;;;93.10;38.20;;;8.00;99.90;;;;;;5082936;28;20028;-72
2021/12/23 03:53:58;;;;;;;84.68;36.60;;;8.20;99.90;;;;;;5083008;28;20066;-72
2021/12/23 03:56:23;;;;;;;81.25;36.63;;;8.30;99.90;;;;;;5083275;28;20021;-73
2021/12/23 03:58:49;;;;;;;82.47;37.63;;;8.40;99.90;;;;;;5084173;28;20054;-73
2021/12/23 04:01:15;;;;;;;90.72;38.60;;;8.40;99.90;;;;;;5084314;28;20024;-72
2021/12/23 04:03:41;;;;;;;91.43;37.15;;;8.40;99.90;;;;;;5084493;28;20043;-72
2021/12/23 04:06:07;;;;;;;83.05;37.10;;;8.40;99.90;;;;;;5082864;28;20383;-73
2021/12/23 04:08:32;;;;;;;77.35;32.45;;;8.50;99.90;;;;;;5083158;28;20084;-72
2021/12/23 04:10:59;;;;;;;80.65;36.08;;;8.50;99.90;;;;;;5083759;28;20031;-73
2021/12/23 04:13:26;;;;;;;80.70;36.22;;;8.60;99.90;;;;;;5084258;28;20020;-73
2021/12/23 04:15:52;;;;;;;83.50;35.13;;;8.60;99.90;;;;;;5083988;28;20258;-73
2021/12/23 04:18:18;;;;;;;100.22;41.38;;;8.70;99.90;;;;;;5084201;28;20016;-72
2021/12/23 04:20:53;;;;;;;84.00;33.13;;;8.70;99.90;;;;;;5083975;28;20024;-73
2021/12/23 04:23:20;;;;;;;72.55;31.23;;;8.80;99.90;;;;;;5083831;28;20051;-73
2021/12/23 04:25:46;;;;;;;81.72;36.88;;;8.80;99.90;;;;;;5083776;28;20047;-72
2021/12/23 04:28:12;;;;;;;79.05;35.83;;;8.90;99.90;;;;;;5083527;28;20208;-72
2021/12/23 04:30:38;;;;;;;75.13;35.05;;;8.90;99.90;;;;;;5083578;28;20031;-73
2021/12/23 04:33:04;;;;;;;79.95;34.53;;;8.90;99.90;;;;;;5066222;28;20088;-73
2021/12/23 04:35:30;;;;;;;82.85;36.55;;;8.90;99.90;;;;;;5083933;28;20054;-73
2021/12/23 04:37:56;;;;;;;85.38;36.63;;;8.90;99.90;;;;;;5083936;28;20081;-74
2021/12/23 04:40:22;;;;;;;85.15;36.55;;;8.90;99.90;;;;;;5083956;28;20055;-74
2021/12/23 04:42:47;;;;;;;78.68;36.25;;;8.90;99.90;;;;;;5083932;28;20212;-73
2021/12/23 04:45:14;;;;;;;81.22;35.63;;;8.90;99.90;;;;;;5083963;28;20253;-73
2021/12/23 04:47:39;;;;;;;89.63;37.15;;;8.90;99.90;;;;;;5082475;28;20031;-73
2021/12/23 04:50:08;;;;;;;84.78;37.67;;;8.90;99.90;;;;;;5082461;28;20024;-74
2021/12/23 04:52:34;;;;;;;82.25;36.97;;;8.90;99.90;;;;;;5066339;28;20028;-73
2021/12/23 04:55:00;;;;;;;88.68;37.25;;;8.80;99.90;;;;;;5082776;28;20044;-72
2021/12/23 04:57:26;;;;;;;89.47;38.35;;;8.80;99.90;;;;;;5083654;28;20070;-74
2021/12/23 04:59:51;;;;;;;90.00;37.67;;;8.80;99.90;;;;;;5083484;28;20245;-74
2021/12/23 05:02:17;;;;;;;84.38;36.65;;;8.80;99.90;;;;;;5083714;28;20025;-73
2021/12/23 05:04:43;;;;;;;85.57;37.25;;;8.80;99.90;;;;;;5086258;28;20215;-73
2021/12/23 05:07:08;;;;;;;85.45;36.55;;;8.90;99.90;;;;;;5087447;28;20020;-73
2021/12/23 05:09:34;;;;;;;83.05;37.08;;;8.90;99.90;;;;;;5087616;28;20039;-73
2021/12/23 05:12:00;;;;;;;89.60;36.58;;;8.90;99.90;;;;;;5086448;28;20023;-73
2021/12/23 05:14:25;;;;;;;77.63;35.30;;;9.00;99.90;;;;;;5087307;28;20079;-73
2021/12/23 05:16:51;;;;;;;84.50;35.10;;;9.10;99.90;;;;;;5087317;28;20039;-74
2021/12/23 05:19:17;;;;;;;79.80;35.75;;;9.10;99.90;;;;;;5087253;28;20028;-72
2021/12/23 05:21:42;;;;;;;80.07;35.90;;;9.10;99.90;;;;;;5086430;28;20021;-73
2021/12/23 05:24:08;;;;;;;77.60;34.15;;;9.10;99.90;;;;;;5086134;28;20044;-72
2021/12/23 05:26:33;;;;;;;83.00;37.83;;;9.10;99.90;;;;;;5069439;28;20020;-72
2021/12/23 05:28:59;;;;;;;88.68;35.67;;;9.10;99.90;;;;;;5086396;28;20017;-74
2021/12/23 05:31:25;;;;;;;98.07;39.40;;;9.10;99.90;;;;;;5087126;28;20295;-72
2021/12/23 05:33:51;;;;;;;87.78;36.30;;;9.10;99.90;;;;;;5086565;28;20300;-73
2021/12/23 05:36:17;;;;;;;89.85;37.70;;;9.10;99.90;;;;;;5086974;28;20036;-73
2021/12/23 05:38:42;;;;;;;87.55;38.83;;;9.10;99.90;;;;;;5085717;28;20295;-74
2021/12/23 05:41:08;;;;;;;86.93;38.67;;;9.20;99.90;;;;;;5087011;28;20094;-73
2021/12/23 05:43:34;;;;;;;97.05;39.95;;;9.10;99.90;;;;;;5087022;28;20063;-74
2021/12/23 05:46:00;;;;;;;100.80;39.63;;;9.20;99.90;;;;;;5086749;28;20028;-73
2021/12/23 05:48:26;;;;;;;96.15;38.70;;;9.20;99.90;;;;;;5086608;28;20291;-73
2021/12/23 05:50:51;;;;;;;95.80;38.83;;;9.30;99.90;;;;;;5086127;28;20088;-74
2021/12/23 05:53:17;;;;;;;87.47;37.15;;;9.30;99.90;;;;;;5085851;28;20304;-73
2021/12/23 05:55:43;;;;;;;90.90;39.53;;;9.30;99.90;;;;;;5086747;28;20215;-73
2021/12/23 05:58:08;;;;;;;93.57;36.65;;;9.30;99.90;;;;;;5086023;28;20020;-73
2021/12/23 06:00:34;;;;;;;84.53;38.03;;;9.30;99.90;;;;;;5092573;28;20016;-73
2021/12/23 06:03:01;;;;;;;93.90;39.03;;;9.20;99.90;;;;;;5093317;28;20334;-73
2021/12/23 06:05:27;;;;;;;96.78;38.45;;;9.20;99.90;;;;;;5093816;28;20053;-73
2021/12/23 06:07:53;;;;;;;92.47;38.22;;;9.10;99.90;;;;;;5094346;28;20085;-73
2021/12/23 06:10:20;;;;;;;93.68;38.28;;;9.00;99.90;;;;;;5090362;28;20017;-73
2021/12/23 06:12:46;;;;;;;114.07;37.78;;;9.00;99.90;;;;;;5091205;28;20080;-73
2021/12/23 06:15:12;;;;;;;143.98;42.80;;;8.90;99.90;;;;;;5091044;28;20024;-71
2021/12/23 06:17:39;;;;;;;107.13;39.90;;;8.90;99.90;;;;;;5090493;28;20027;-73
2021/12/23 06:20:07;;;;;;;106.65;40.83;;;8.90;99.90;;;;;;5073105;28;20208;-72
2021/12/23 06:22:35;;;;;;;97.30;39.58;;;8.80;99.90;;;;;;5089141;28;20084;-73
2021/12/23 06:25:02;;;;;;;102.88;39.85;;;8.80;99.90;;;;;;5086970;28;20043;-73
2021/12/23 06:27:27;;;;;;;111.13;40.95;;;8.70;99.90;;;;;;5085264;28;20024;-73
2021/12/23 06:29:53;;;;;;;105.03;40.83;;;8.70;99.90;;;;;;5085507;28;20020;-73
2021/12/23 06:32:19;;;;;;;98.00;39.95;;;8.70;99.90;;;;;;5086107;28;20215;-73
2021/12/23 06:34:45;;;;;;;100.00;37.90;;;8.70;99.90;;;;;;5085751;28;20300;-72
2021/12/23 06:37:10;;;;;;;97.75;39.15;;;8.70;99.90;;;;;;5085855;28;20024;-72
2021/12/23 06:39:36;;;;;;;97.53;38.80;;;8.80;99.90;;;;;;5085744;28;20020;-72
2021/12/23 06:42:03;;;;;;;270.70;51.22;;;8.80;99.90;;;;;;5085928;28;20052;-73
2021/12/23 06:44:29;;;;;;;275.48;53.33;;;8.80;99.90;;;;;;5084696;28;20264;-72
2021/12/23 06:46:55;;;;;;;193.55;46.08;;;8.70;99.90;;;;;;5085842;28;20070;-72
2021/12/23 06:49:20;;;;;;;140.95;43.80;;;8.70;99.90;;;;;;5084215;28;20311;-73
2021/12/23 06:51:46;;;;;;;135.45;39.60;;;8.80;99.90;;;;;;5084193;28;20062;-72
2021/12/23 06:54:15;;;;;;;168.57;42.90;;;8.80;99.90;;;;;;5084449;28;20062;-72
2021/12/23 06:56:40;;;;;;;152.20;40.50;;;8.90;99.90;;;;;;5084616;28;20295;-73
2021/12/23 06:59:06;;;;;;;141.98;40.40;;;8.90;99.90;;;;;;5083916;28;20047;-74
2021/12/23 07:01:32;;;;;;;106.40;36.63;;;9.00;99.90;;;;;;5085540;28;20027;-73
2021/12/23 07:06:48;;;;;;;87.50;34.47;;;9.00;99.90;;;;;;5084396;28;20050;-72
2021/12/23 07:09:15;;;;;;;81.53;35.58;;;9.10;99.90;;;;;;5083930;28;20185;-73
2021/12/23 07:11:41;;;;;;;80.97;33.40;;;9.10;99.90;;;;;;5084155;28;20024;-72
2021/12/23 07:14:06;;;;;;;79.82;36.00;;;9.10;99.90;;;;;;5085372;28;20089;-73
2021/12/23 07:16:33;;;;;;;92.35;36.65;;;9.20;99.90;;;;;;5085270;28;20017;-73
2021/12/23 07:18:59;;;;;;;98.70;36.53;;;9.20;99.90;;;;;;5084568;28;20067;-72
2021/12/23 07:21:24;;;;;;;129.60;40.28;;;9.20;99.90;;;;;;5084986;28;20051;-73
2021/12/23 07:23:50;;;;;;;241.35;45.05;;;9.20;99.90;;;;;;5084836;28;20048;-72
2021/12/23 07:26:17;;;;;;;133.38;39.25;;;9.20;99.90;;;;;;5084754;28;20055;-72
2021/12/23 07:28:43;;;;;;;119.32;37.10;;;9.20;99.90;;;;;;5083531;28;20062;-73
2021/12/23 07:31:09;;;;;;;166.52;41.80;;;9.10;99.90;;;;;;5084607;28;20122;-73
2021/12/23 07:33:35;;;;;;;129.45;38.55;;;9.10;99.90;;;;;;5084186;28;20298;-72
2021/12/23 07:36:04;;;;;;;232.15;42.20;;;9.10;99.90;;;;;;5084753;28;20016;-73
2021/12/23 07:38:31;;;;;;;210.85;43.60;;;9.20;99.90;;;;;;5067416;28;20313;-72
2021/12/23 07:40:58;;;;;;;137.63;36.85;;;9.20;99.90;;;;;;5082994;28;20024;-73
2021/12/23 07:46:10;;;;;;;115.75;35.13;;;9.20;99.90;;;;;;5083409;28;20303;-73
2021/12/23 07:48:36;;;;;;;71.55;31.13;;;9.20;99.90;;;;;;5083325;28;20021;-72
2021/12/23 07:51:03;;;;;;;69.60;31.95;;;9.20;99.90;;;;;;5084319;28;20026;-74
2021/12/23 07:53:29;;;;;;;97.80;34.22;;;9.20;99.90;;;;;;5081819;28;20024;-73
2021/12/23 07:55:55;;;;;;;98.63;30.67;;;9.30;99.90;;;;;;5084505;28;20251;-72
2021/12/23 07:58:20;;;;;;;98.57;31.55;;;9.30;99.90;;;;;;5084099;28;20052;-73
2021/12/23 08:00:46;;;;;;;98.85;31.42;;;9.30;99.90;;;;;;5084196;28;20020;-73
2021/12/23 08:03:12;;;;;;;86.45;29.60;;;9.40;99.90;;;;;;5083004;28;20075;-72
2021/12/23 08:05:38;;;;;;;76.90;30.40;;;9.40;99.90;;;;;;5083293;28;20087;-72
2021/12/23 08:08:05;;;;;;;63.63;29.70;;;9.40;99.90;;;;;;5084188;28;20020;-73
2021/12/23 08:10:31;;;;;;;70.97;29.45;;;9.50;99.90;;;;;;5083983;28;20028;-73
2021/12/23 08:12:56;;;;;;;70.18;30.52;;;9.50;99.90;;;;;;5082967;28;20036;-73
2021/12/23 08:15:22;;;;;;;74.78;30.50;;;9.50;99.90;;;;;;5083016;28;20024;-73
2021/12/23 08:17:48;;;;;;;123.97;32.22;;;9.40;99.90;;;;;;5082639;28;20246;-73
2021/12/23 08:20:15;;;;;;;147.93;36.20;;;9.40;99.90;;;;;;5082667;28;20066;-73
2021/12/23 08:22:42;;;;;;;94.00;31.75;;;9.40;99.90;;;;;;5084131;28;20035;-73
2021/12/23 08:25:10;;;;;;;163.07;38.15;;;9.40;99.90;;;;;;5082652;28;20115;-72
2021/12/23 08:27:36;;;;;;;191.43;39.80;;;9.30;99.90;;;;;;5066106;28;20020;-73
2021/12/23 08:30:06;;;;;;;236.30;41.15;;;9.30;99.90;;;;;;5083411;28;20039;-74
2021/12/23 08:32:31;;;;;;;149.95;34.45;;;9.40;99.90;;;;;;5083931;28;20084;-73
2021/12/23 08:34:57;;;;;;;78.43;29.70;;;9.40;99.90;;;;;;5082805;28;20028;-74
2021/12/23 08:37:24;;;;;;;62.33;30.08;;;9.40;99.90;;;;;;5082899;28;20345;-73
2021/12/23 08:39:51;;;;;;;69.03;29.80;;;9.40;99.90;;;;;;5083587;28;20056;-72
2021/12/23 08:42:16;;;;;;;70.68;30.60;;;9.40;99.90;;;;;;5083865;28;20052;-73
2021/12/23 08:44:42;;;;;;;66.15;30.95;;;9.40;99.90;;;;;;5082544;28;20059;-72
2021/12/23 08:47:09;;;;;;;68.32;31.10;;;9.40;99.90;;;;;;5082386;28;20028;-72
2021/12/23 08:49:35;;;;;;;66.18;30.48;;;9.40;99.90;;;;;;5082783;28;20074;-73
2021/12/23 08:52:01;;;;;;;72.28;32.60;;;9.40;99.90;;;;;;5082626;28;20024;-73
2021/12/23 08:54:27;;;;;;;69.38;30.67;;;9.40;99.90;;;;;;5082106;28;20020;-72
2021/12/23 08:56:52;;;;;;;68.22;30.98;;;9.40;99.90;;;;;;5083807;28;20363;-73
2021/12/23 08:59:18;;;;;;;66.13;31.05;;;9.40;99.90;;;;;;5082371;28;20025;-73
2021/12/23 09:01:45;;;;;;;69.78;31.67;;;9.40;99.90;;;;;;5083455;28;20371;-73
2021/12/23 09:04:12;;;;;;;74.53;31.88;;;9.40;99.90;;;;;;5082445;28;20039;-72
2021/12/23 09:06:37;;;;;;;76.70;31.65;;;9.40;99.90;;;;;;5082670;28;20016;-73
2021/12/23 09:09:04;;;;;;;70.72;30.95;;;9.40;99.90;;;;;;5081975;28;20041;-74
2021/12/23 09:11:30;;;;;;;77.28;33.53;;;9.50;99.90;;;;;;5083336;28;20016;-72
2021/12/23 09:13:57;;;;;;;80.18;33.85;;;9.60;99.90;;;;;;5083458;28;20024;-73
2021/12/23 09:16:23;;;;;;;128.70;36.85;;;9.60;99.90;;;;;;5083771;28;20016;-73
2021/12/23 09:18:48;;;;;;;127.03;38.08;;;9.60;99.90;;;;;;5083515;28;20036;-73
2021/12/23 09:21:14;;;;;;;125.75;39.78;;;9.60;99.90;;;;;;5085661;28;20016;-73
2021/12/23 09:23:41;;;;;;;141.77;35.20;;;9.70;99.90;;;;;;5096980;28;20056;-72
2021/12/23 09:26:10;;;;;;;110.30;32.92;;;9.70;99.90;;;;;;5095050;28;20024;-73
2021/12/23 09:28:54;;;;;;;94.65;30.35;;;9.80;99.90;;;;;;5093601;28;20032;-72
2021/12/23 09:34:08;;;;;;;45.05;20.83;;;9.90;99.90;;;;;;5069426;28;20240;-72
2021/12/23 09:36:34;;;;;;;60.83;21.17;;;9.90;99.90;;;;;;5083647;28;20016;-73
2021/12/23 09:39:00;;;;;;;40.75;18.98;;;10.00;99.90;;;;;;5065618;28;20204;-73
2021/12/23 09:41:27;;;;;;;41.70;17.85;;;10.10;99.90;;;;;;5082140;28;20032;-72
2021/12/23 09:43:56;;;;;;;39.50;17.05;;;10.20;99.90;;;;;;5083310;28;20040;-73
2021/12/23 09:46:22;;;;;;;54.58;17.27;;;10.30;99.90;;;;;;5083119;28;20012;-74
2021/12/23 09:48:48;;;;;;;46.63;17.63;;;10.30;99.90;;;;;;5081979;28;20212;-73
2021/12/23 09:51:17;;;;;;;35.67;16.20;;;10.30;99.90;;;;;;5084868;28;20052;-74
2021/12/23 09:53:47;;;;;;;30.35;15.73;;;10.30;99.90;;;;;;5085787;28;20017;-72
2021/12/23 09:56:13;;;;;;;25.40;14.00;;;10.40;99.90;;;;;;5085302;28;20204;-74
2021/12/23 09:58:39;;;;;;;26.27;13.40;;;10.40;99.90;;;;;;5085286;28;20304;-75
2021/12/23 10:01:06;;;;;;;21.38;12.90;;;10.50;99.90;;;;;;5086363;28;20017;-74
2021/12/23 10:03:33;;;;;;;23.05;13.27;;;10.50;99.90;;;;;;5086016;28;20322;-74
2021/12/23 10:05:59;;;;;;;21.98;11.57;;;10.50;99.90;;;;;;5086664;28;20020;-75
2021/12/23 10:08:27;;;;;;;17.60;11.18;;;10.60;99.90;;;;;;5086256;28;20215;-75
2021/12/23 10:10:59;;;;;;;19.52;11.15;;;10.70;99.90;;;;;;5085412;28;20012;-75
2021/12/23 10:30:27;;;;;;;12.52;8.75;;;10.90;99.90;;;;;;5071035;28;20036;-73
2021/12/23 10:33:32;;;;;;;17.50;11.82;;;10.90;99.90;;;;;;5079215;28;20319;-73
2021/12/23 10:38:50;;;;;;;12.68;7.90;;;10.90;99.90;;;;;;5051247;28;20017;-72
2021/12/23 10:41:23;;;;;;;16.67;8.43;;;10.90;99.90;;;;;;5065766;28;20025;-73
2021/12/23 10:43:56;;;;;;;10.38;7.40;;;11.00;99.90;;;;;;5064298;28;20037;-72
2021/12/23 10:46:27;;;;;;;17.35;10.48;;;11.00;99.90;;;;;;5069400;28;20032;-74
2021/12/23 10:49:21;;;;;;;10.73;6.72;;;11.00;99.90;;;;;;5085825;28;20056;-75
2021/12/23 10:52:08;;;;;;;9.80;5.45;;;11.00;99.90;;;;;;5084801;28;20028;-74
2021/12/23 11:00:23;;;;;;;8.43;4.75;;;11.20;99.90;;;;;;5070237;28;20307;-74
2021/12/23 11:03:15;;;;;;;8.68;4.55;;;11.20;99.90;;;;;;5084958;28;20337;-73
2021/12/23 11:05:50;;;;;;;6.75;4.00;;;11.20;99.90;;;;;;5071197;28;20048;-74
2021/12/23 11:08:24;;;;;;;6.38;4.43;;;11.20;99.90;;;;;;5084250;28;20424;-74
2021/12/23 11:11:18;;;;;;;6.32;4.18;;;11.30;99.90;;;;;;5085428;28;20199;-74
2021/12/23 11:27:52;;;;;;;10.18;4.93;;;11.50;99.90;;;;;;5070148;28;20330;-73
2021/12/23 11:38:59;;;;;;;6.00;4.10;;;11.50;99.90;;;;;;5077849;28;20311;-73
2021/12/23 11:41:37;;;;;;;8.52;5.57;;;11.50;99.90;;;;;;5063730;28;20025;-76
2021/12/23 11:44:06;;;;;;;8.05;5.30;;;11.50;99.90;;;;;;5064539;28;20028;-72
2021/12/23 11:46:47;;;;;;;10.10;5.20;;;11.60;99.90;;;;;;5070869;28;20093;-72
2021/12/23 11:49:14;;;;;;;6.32;5.03;;;11.50;99.90;;;;;;5083379;28;20028;-72
2021/12/23 11:51:53;;;;;;;8.07;4.75;;;11.60;99.90;;;;;;5083554;28;20048;-72
2021/12/23 11:54:29;;;;;;;7.45;4.18;;;11.50;99.90;;;;;;5084309;28;20062;-72
2021/12/23 11:57:16;;;;;;;9.05;4.57;;;11.50;99.90;;;;;;5081975;28;20319;-73
2021/12/23 11:59:45;;;;;;;11.35;5.95;;;11.50;99.90;;;;;;5083298;28;20024;-73
2021/12/23 12:02:15;;;;;;;16.33;5.03;;;11.50;99.90;;;;;;5083212;28;20027;-74
2021/12/23 12:04:40;;;;;;;12.35;4.47;;;11.40;99.90;;;;;;5083922;28;20382;-75
2021/12/23 12:07:23;;;;;;;13.80;5.03;;;11.40;99.90;;;;;;5084240;28;20021;-73
2021/12/23 12:10:10;;;;;;;11.95;4.82;;;11.40;99.90;;;;;;5066626;28;20089;-74
2021/12/23 12:12:57;;;;;;;10.45;4.90;;;11.40;99.90;;;;;;5083364;28;20020;-74
2021/12/23 12:15:47;;;;;;;8.10;4.43;;;11.40;99.90;;;;;;5082941;28;20050;-74
2021/12/23 12:18:19;;;;;;;10.95;4.75;;;11.50;99.90;;;;;;5083294;28;20352;-75
2021/12/23 12:20:50;;;;;;;5.63;4.10;;;11.50;99.90;;;;;;5084266;28;20021;-75
2021/12/23 12:23:35;;;;;;;11.13;4.40;;;11.60;99.90;;;;;;5083862;28;20098;-74
2021/12/23 12:26:04;;;;;;;11.98;4.80;;;11.60;99.90;;;;;;5083906;28;20025;-74
2021/12/23 12:28:38;;;;;;;9.80;4.57;;;11.60;99.90;;;;;;5083790;28;20048;-74
2021/12/23 12:31:08;;;;;;;13.75;3.97;;;11.60;99.90;;;;;;5082851;28;20017;-74
2021/12/23 12:33:41;;;;;;;10.13;4.78;;;11.60;99.90;;;;;;5084406;28;20021;-74
2021/12/23 12:36:11;;;;;;;7.20;3.95;;;11.70;99.90;;;;;;5098456;28;20019;-74
2021/12/23 12:38:48;;;;;;;8.85;4.10;;;11.80;99.90;;;;;;5098632;28;20020;-73
2021/12/23 12:41:36;;;;;;;8.20;4.50;;;11.70;99.90;;;;;;5098313;28;20012;-74
2021/12/23 12:44:13;;;;;;;15.48;5.03;;;11.80;99.90;;;;;;5098441;28;20020;-74
2021/12/23 12:46:59;;;;;;;13.05;4.53;;;11.70;99.90;;;;;;5098496;28;20020;-75
2021/12/23 12:49:29;;;;;;;8.77;4.30;;;11.70;99.90;;;;;;5088236;28;20044;-75
2021/12/23 12:52:08;;;;;;;6.65;3.70;;;11.70;99.90;;;;;;5082715;28;20246;-75
2021/12/23 12:54:41;;;;;;;6.60;3.80;;;11.70;99.90;;;;;;5083640;28;20055;-73
2021/12/23 12:57:08;;;;;;;4.32;3.72;;;11.80;99.90;;;;;;5082224;28;20022;-74
2021/12/23 12:59:38;;;;;;;6.63;3.83;;;11.80;99.90;;;;;;5083237;28;20028;-74
2021/12/23 13:02:33;;;;;;;8.35;4.10;;;11.80;99.90;;;;;;5065868;28;20091;-74
2021/12/23 13:05:06;;;;;;;8.32;4.20;;;11.80;99.90;;;;;;5083362;28;20342;-72
2021/12/23 13:07:35;;;;;;;5.07;3.70;;;11.80;99.90;;;;;;5082546;28;20058;-74
2021/12/23 13:10:09;;;;;;;6.50;3.58;;;11.90;99.90;;;;;;5082590;28;20292;-74
2021/12/23 13:12:57;;;;;;;9.43;4.00;;;11.90;99.90;;;;;;5082831;28;20091;-73
2021/12/23 13:15:33;;;;;;;20.00;4.85;;;11.80;99.90;;;;;;5082302;28;20032;-75
2021/12/23 13:18:07;;;;;;;6.68;3.78;;;11.80;99.90;;;;;;5082737;28;20078;-73
2021/12/23 13:20:55;;;;;;;9.98;4.28;;;11.90;99.90;;;;;;5082539;28;20041;-75
2021/12/23 13:23:37;;;;;;;5.72;3.35;;;11.90;99.90;;;;;;5082550;28;20035;-76
2021/12/23 13:26:06;;;;;;;5.68;3.88;;;11.90;99.90;;;;;;5070409;28;20016;-74
2021/12/23 13:28:51;;;;;;;10.07;4.18;;;11.90;99.90;;;;;;5085858;28;20192;-74
2021/12/23 13:31:26;;;;;;;8.88;4.07;;;12.00;99.90;;;;;;5085918;28;20307;-75
2021/12/23 13:33:55;;;;;;;8.15;4.07;;;12.00;99.90;;;;;;5086194;28;20020;-73
2021/12/23 13:36:25;;;;;;;8.43;3.85;;;12.00;99.90;;;;;;5069558;28;20095;-74
2021/12/23 13:38:55;;;;;;;6.25;3.75;;;12.10;99.90;;;;;;5087187;28;20020;-75
2021/12/23 13:41:28;;;;;;;7.97;4.15;;;12.10;99.90;;;;;;5086024;28;20024;-74
2021/12/23 13:43:58;;;;;;;9.02;4.20;;;12.20;99.90;;;;;;5086611;28;20043;-76